Time;durP1;ratioP1;P1;durP2;ratioP2;P2;SDS_P1;SDS_P2;PMS_P1;PMS_P2;Temp;Humidity;BMP_temperature;BMP_pressure;BME280_temperature;BME280_humidity;BME280_pressure;Samples;Min_cycle;Max_cycle;Signal;HPM_P1;HPM_P2
2023/07/23 00:01:51;;;;;;;10.18;7.82;;;;;;;13.90;92.64;101007.72;4924231;29;20482;-79
2023/07/23 00:04:17;;;;;;;10.48;7.55;;;;;;;13.89;92.63;101011.50;4919925;29;20050;-81
2023/07/23 00:06:43;;;;;;;11.40;7.55;;;;;;;13.89;92.79;100989.16;4916493;29;20409;-80
2023/07/23 00:09:10;;;;;;;11.75;7.72;;;;;;;13.89;92.70;100989.16;4922784;29;20043;-81
2023/07/23 00:11:39;;;;;;;11.38;7.85;;;;;;;13.91;92.40;100995.84;4971821;23;20020;-78
2023/07/23 00:14:04;;;;;;;11.70;8.30;;;;;;;13.92;92.44;100989.38;5139314;23;20029;-80
2023/07/23 00:16:30;;;;;;;11.90;7.63;;;;;;;13.87;92.39;100981.34;4907232;29;20121;-80
2023/07/23 00:18:56;;;;;;;;;;;;;;;13.92;92.65;100983.19;4918780;29;20040;-80
2023/07/23 00:21:22;;;;;;;11.88;7.75;;;;;;;13.88;93.00;100972.16;4909829;29;19918;-80
2023/07/23 00:23:47;;;;;;;10.30;7.90;;;;;;;13.90;92.96;100978.09;4891021;29;20080;-80
2023/07/23 00:26:13;;;;;;;;;;;;;;;13.93;93.05;100980.19;4888075;29;20101;-82
2023/07/23 00:28:39;;;;;;;11.27;7.70;;;;;;;13.85;92.91;100967.38;4925991;29;19931;-82
2023/07/23 00:31:05;;;;;;;12.50;8.10;;;;;;;13.88;93.15;100972.16;4896531;29;20048;-80
2023/07/23 00:33:31;;;;;;;11.38;7.85;;;;;;;13.87;93.23;100953.63;4904675;29;20048;-82
2023/07/23 00:35:57;;;;;;;11.57;8.27;;;;;;;13.86;93.09;100949.31;4892937;29;20044;-79
2023/07/23 00:38:23;;;;;;;10.80;8.02;;;;;;;13.87;92.98;100967.88;4913099;29;20919;-79
2023/07/23 00:40:49;;;;;;;11.90;8.30;;;;;;;13.85;93.37;100951.22;4913802;29;20036;-80
2023/07/23 00:43:15;;;;;;;13.07;9.20;;;;;;;13.88;93.55;100953.31;4895020;29;20037;-81
2023/07/23 00:45:41;;;;;;;14.88;8.88;;;;;;;13.83;93.16;100937.25;4900559;29;20040;-79
2023/07/23 00:48:07;;;;;;;12.45;8.45;;;;;;;13.85;93.26;100939.66;4898265;29;20391;-80
2023/07/23 00:50:33;;;;;;;11.65;7.95;;;;;;;13.81;92.95;100938.59;4890276;29;20047;-80
2023/07/23 00:52:58;;;;;;;12.70;8.00;;;;;;;13.82;92.96;100930.25;4887046;29;20470;-80
2023/07/23 00:55:30;;;;;;;13.05;9.50;;;;;;;13.83;93.05;100934.56;4904156;29;20044;-78
2023/07/23 00:57:56;;;;;;;12.02;8.27;;;;;;;13.82;93.19;100927.56;4900132;29;20040;-79
2023/07/23 01:00:22;;;;;;;11.43;8.75;;;;;;;13.82;93.28;100916.81;4911257;29;20048;-79
2023/07/23 01:02:48;;;;;;;13.35;9.05;;;;;;;13.80;93.00;100927.03;4887035;29;20410;-78
2023/07/23 01:05:14;;;;;;;13.02;9.65;;;;;;;13.80;93.69;100918.97;4879422;29;20036;-79
2023/07/23 01:07:42;;;;;;;13.55;9.77;;;;;;;13.80;94.04;100921.66;4886824;29;20047;-76
2023/07/23 01:12:59;;;;;;;12.88;9.18;;;;;;;13.80;93.96;100910.09;4904136;29;20704;-79
2023/07/23 01:15:31;;;;;;;14.02;10.15;;;;;;;13.83;93.84;100915.72;4933255;29;20083;-81
2023/07/23 01:17:59;;;;;;;14.40;9.77;;;;;;;13.83;94.03;100910.31;4908625;29;20418;-79
2023/07/23 01:20:25;;;;;;;12.77;9.20;;;;;;;13.85;94.05;100893.88;4920951;29;20040;-79
2023/07/23 01:22:51;;;;;;;16.13;11.18;;;;;;;13.85;93.94;100902.75;4906845;29;20433;-77
2023/07/23 01:25:17;;;;;;;16.70;10.85;;;;;;;13.85;94.00;100894.69;4937752;29;20055;-78
2023/07/23 01:27:42;;;;;;;;;;;;;;;13.86;94.11;100888.22;4890519;29;20044;-79
2023/07/23 01:30:08;;;;;;;14.02;9.40;;;;;;;13.84;94.00;100892.28;4914582;29;20404;-79
2023/07/23 01:32:36;;;;;;;12.82;9.52;;;;;;;13.84;93.90;100882.31;4896134;29;20047;-74
2023/07/23 01:35:09;;;;;;;17.05;11.30;;;;;;;13.87;94.38;100879.03;4905890;29;20091;-78
2023/07/23 01:37:36;;;;;;;15.93;11.32;;;;;;;13.85;94.01;100875.84;4898638;29;20131;-78
2023/07/23 01:40:02;;;;;;;16.58;11.20;;;;;;;13.85;93.95;100870.47;4904437;29;20058;-78
2023/07/23 01:42:31;;;;;;;15.68;10.82;;;;;;;13.92;94.47;100875.50;4953481;23;20043;-77
2023/07/23 01:45:01;;;;;;;14.93;11.15;;;;;;;13.89;94.35;100876.88;4936224;28;20047;-75
2023/07/23 01:47:27;;;;;;;18.30;12.43;;;;;;;13.92;94.35;100881.66;4921107;29;20039;-78
2023/07/23 01:49:53;;;;;;;;;;;;;;;13.94;94.58;100878.69;4936386;28;20043;-78
2023/07/23 01:52:18;;;;;;;16.88;11.35;;;;;;;13.91;93.57;100869.31;4935964;29;19919;-78
2023/07/23 01:54:44;;;;;;;15.20;11.10;;;;;;;13.92;93.96;100865.53;4920221;29;20385;-77
2023/07/23 01:57:09;;;;;;;;;;;;;;;13.93;94.09;100861.72;4914343;28;20039;-78
2023/07/23 01:59:35;;;;;;;16.60;10.57;;;;;;;13.91;94.25;100853.16;4934191;29;19919;-78
2023/07/23 02:02:04;;;;;;;;;;;;;;;13.94;94.09;100860.63;4916698;29;20039;-80
2023/07/23 02:04:30;;;;;;;16.83;10.50;;;;;;;13.89;93.82;100849.97;4936132;29;19922;-79
2023/07/23 02:06:56;;;;;;;14.90;11.05;;;;;;;13.86;93.61;100844.34;4932349;28;20051;-78
2023/07/23 02:09:21;;;;;;;;;;;;;;;13.90;93.95;100851.56;4939265;29;20042;-79
2023/07/23 02:11:47;;;;;;;15.80;10.50;;;;;;;13.91;93.90;100847.78;4915089;29;19918;-75
2023/07/23 02:14:13;;;;;;;15.00;11.00;;;;;;;13.92;93.72;100849.38;4933991;29;20440;-77
2023/07/23 02:16:38;;;;;;;;;;;;;;;13.93;94.47;100845.56;4934778;29;20074;-77
2023/07/23 02:19:05;;;;;;;13.43;10.50;;;;;;;13.89;93.75;100843.78;4935598;29;19942;-77
2023/07/23 02:21:31;;;;;;;18.08;11.60;;;;;;;13.86;93.92;100834.38;4937077;29;20054;-77
2023/07/23 02:23:56;;;;;;;18.95;12.18;;;;;;;13.90;94.02;100837.28;4937558;29;20517;-79
2023/07/23 02:26:22;;;;;;;;;;;;;;;13.92;94.10;100840.50;4937576;29;20074;-78
2023/07/23 02:28:48;;;;;;;14.93;10.70;;;;;;;13.91;94.14;100837.00;4923961;29;19914;-79
2023/07/23 02:31:13;;;;;;;16.83;11.15;;;;;;;13.90;94.19;100826.53;4928716;29;20116;-79
2023/07/23 02:33:39;;;;;;;;;;;;;;;13.93;93.98;100832.13;4943269;28;20098;-77
2023/07/23 02:36:05;;;;;;;16.55;10.13;;;;;;;13.91;94.07;100820.84;4934744;29;19918;-81
2023/07/23 02:38:30;;;;;;;;;;;;;;;13.96;94.70;100827.25;4933591;29;20023;-77
2023/07/23 02:40:56;;;;;;;16.08;10.32;;;;;;;13.92;94.58;100811.66;4937911;29;20410;-79
2023/07/23 02:43:24;;;;;;;17.63;11.35;;;;;;;13.93;94.26;100817.84;4950521;28;20063;-79
2023/07/23 02:45:50;;;;;;;17.90;11.65;;;;;;;13.91;94.43;100810.06;4952046;29;20031;-77
2023/07/23 02:48:17;;;;;;;17.95;11.25;;;;;;;13.90;94.12;100819.25;4936517;29;20046;-78
2023/07/23 02:50:42;;;;;;;15.75;11.50;;;;;;;13.93;93.83;100813.28;4922512;29;20131;-77
2023/07/23 02:53:08;;;;;;;14.38;11.05;;;;;;;13.94;94.31;100814.88;4919244;29;20122;-77
2023/07/23 02:55:34;;;;;;;15.18;11.38;;;;;;;13.96;94.29;100808.41;4942157;29;20046;-77
2023/07/23 02:58:03;;;;;;;12.55;9.35;;;;;;;13.92;94.02;100800.91;4926625;28;20505;-76
2023/07/23 03:00:30;;;;;;;15.00;9.63;;;;;;;13.97;94.13;100801.94;4905381;23;20079;-71
2023/07/23 03:02:56;;;;;;;12.65;9.93;;;;;;;13.98;94.02;100804.34;4908725;29;20044;-71
2023/07/23 03:05:24;;;;;;;;;;;;;;;13.97;93.94;100788.47;4896577;29;20573;-72
2023/07/23 03:07:53;;;;;;;12.98;10.48;;;;;;;13.96;93.98;100789.56;4903923;29;19925;-73
2023/07/23 03:10:19;;;;;;;16.88;11.07;;;;;;;13.99;94.13;100791.66;4907255;29;20060;-72
2023/07/23 03:12:45;;;;;;;;;;;;;;;13.99;94.29;100789.78;4889249;29;20046;-72
2023/07/23 03:15:10;;;;;;;15.50;10.98;;;;;;;13.98;94.36;100787.38;4885404;29;19919;-72
2023/07/23 03:17:36;;;;;;;18.92;11.90;;;;;;;13.97;94.03;100786.59;4905355;29;20141;-72
2023/07/23 03:20:03;;;;;;;16.42;10.85;;;;;;;13.97;93.82;100775.00;4904775;29;20040;-71
2023/07/23 03:22:29;;;;;;;15.15;10.73;;;;;;;13.98;94.08;100782.78;4894360;29;20047;-72
2023/07/23 03:24:55;;;;;;;15.85;11.02;;;;;;;13.97;94.14;100775.00;4901799;29;20045;-72
2023/07/23 03:27:21;;;;;;;15.98;11.73;;;;;;;13.99;94.50;100770.13;4903894;29;20036;-73
2023/07/23 03:29:47;;;;;;;15.40;10.05;;;;;;;13.97;94.49;100775.00;4903540;29;20040;-72
2023/07/23 03:32:12;;;;;;;16.55;11.73;;;;;;;13.99;94.09;100764.75;4903925;29;20119;-72
2023/07/23 03:34:38;;;;;;;13.30;10.10;;;;;;;13.99;94.49;100765.53;4904575;29;20082;-72
2023/07/23 03:37:05;;;;;;;15.98;10.80;;;;;;;13.99;93.96;100764.75;4904821;29;20304;-72
2023/07/23 03:39:31;;;;;;;16.77;11.50;;;;;;;14.00;94.10;100764.44;4888778;29;20533;-71
2023/07/23 03:41:57;;;;;;;17.50;11.70;;;;;;;14.02;94.15;100769.53;4897601;29;20043;-73
2023/07/23 03:44:22;;;;;;;16.67;10.90;;;;;;;14.01;94.00;100766.03;4900026;29;20637;-73
2023/07/23 03:47:09;;;;;;;;;;;;;;;14.03;94.00;100763.09;4903936;29;20070;-72
2023/07/23 03:49:35;;;;;;;14.85;9.90;;;;;;;14.02;94.29;100756.91;4903689;29;19954;-72
2023/07/23 03:52:00;;;;;;;14.95;10.38;;;;;;;14.04;94.21;100753.91;4904554;29;20115;-73
2023/07/23 03:54:26;;;;;;;15.75;10.32;;;;;;;14.05;94.23;100758.19;4886668;29;20128;-73
2023/07/23 03:56:53;;;;;;;;;;;;;;;14.07;93.85;100761.38;4905813;29;20058;-72
2023/07/23 03:59:18;;;;;;;13.27;9.75;;;;;;;14.05;94.05;100764.38;4905619;29;19922;-73
2023/07/23 04:01:44;;;;;;;14.13;9.10;;;;;;;14.06;93.70;100754.41;4905570;29;20036;-72
2023/07/23 04:04:09;;;;;;;14.48;9.93;;;;;;;14.04;93.65;100753.91;4889664;29;20086;-73
2023/07/23 04:06:35;;;;;;;17.10;11.48;;;;;;;14.05;94.29;100744.72;4905554;29;20051;-74
2023/07/23 04:09:00;;;;;;;16.77;10.57;;;;;;;14.04;94.45;100749.31;4905785;29;20047;-74
2023/07/23 04:11:26;;;;;;;14.48;9.60;;;;;;;14.06;94.08;100751.72;4909042;29;20036;-71
2023/07/23 04:13:52;;;;;;;16.08;10.57;;;;;;;14.06;94.00;100746.31;4906133;29;20119;-73
2023/07/23 04:16:17;;;;;;;16.70;11.02;;;;;;;14.08;94.16;100752.22;4894012;29;20040;-72
2023/07/23 04:18:49;;;;;;;14.82;10.50;;;;;;;14.09;94.37;100745.72;4891004;29;20036;-72
2023/07/23 04:21:16;;;;;;;17.35;11.25;;;;;;;14.08;94.23;100744.94;4904600;29;20032;-73
2023/07/23 04:23:46;;;;;;;16.63;10.93;;;;;;;14.09;94.27;100745.72;4906652;29;20725;-72
2023/07/23 04:26:11;;;;;;;14.30;10.75;;;;;;;14.08;93.98;100744.13;4874721;29;20040;-73
2023/07/23 04:28:37;;;;;;;13.27;9.93;;;;;;;14.08;94.06;100746.81;4904885;29;20562;-73
2023/07/23 04:31:03;;;;;;;;;;;;;;;14.09;94.05;100745.72;4905079;29;20095;-72
2023/07/23 04:33:28;;;;;;;13.95;9.68;;;;;;;14.07;93.98;100742.53;4908652;29;20423;-72
2023/07/23 04:35:54;;;;;;;12.75;8.65;;;;;;;14.07;93.75;100739.84;4904303;29;20554;-72
2023/07/23 04:38:20;;;;;;;;;;;;;;;14.08;94.03;100738.75;4891592;29;20054;-73
2023/07/23 04:40:49;;;;;;;14.73;9.50;;;;;;;14.07;93.89;100737.94;4901376;29;19919;-72
2023/07/23 04:43:14;;;;;;;15.27;9.70;;;;;;;14.06;93.89;100732.88;4903812;29;20111;-73
2023/07/23 04:45:41;;;;;;;14.45;9.50;;;;;;;14.09;94.13;100729.56;4904949;29;20036;-73
2023/07/23 04:48:07;;;;;;;14.23;9.57;;;;;;;14.08;94.20;100734.16;4903516;29;20028;-71
2023/07/23 04:50:33;;;;;;;;;;;;;;;14.09;94.58;100726.88;4905447;29;20040;-74
2023/07/23 04:52:58;;;;;;;13.00;8.80;;;;;;;14.09;94.18;100724.19;4890372;29;19971;-73
2023/07/23 04:55:25;;;;;;;15.18;9.30;;;;;;;14.10;94.34;100717.72;4907064;29;20076;-72
2023/07/23 04:57:51;;;;;;;17.98;9.70;;;;;;;14.11;94.77;100716.63;4909782;29;20482;-72
2023/07/23 05:00:17;;;;;;;12.60;9.82;;;;;;;14.10;94.73;100715.03;4908055;29;20043;-72
2023/07/23 05:02:42;;;;;;;13.75;8.65;;;;;;;14.09;94.23;100713.41;4906935;29;20127;-72
2023/07/23 05:05:08;;;;;;;15.32;9.93;;;;;;;14.08;94.32;100714.50;4904418;29;20067;-71
2023/07/23 05:07:34;;;;;;;13.10;8.98;;;;;;;14.10;94.25;100715.03;4907173;29;20103;-71
2023/07/23 05:09:59;;;;;;;;;;;;;;;14.14;94.64;100716.84;4909003;29;20043;-70
2023/07/23 05:12:26;;;;;;;9.88;6.88;;;;;;;14.12;94.53;100707.47;4922484;29;19919;-71
2023/07/23 05:14:54;;;;;;;15.32;9.18;;;;;;;14.13;94.64;100699.06;4908954;29;20035;-70
2023/07/23 05:17:20;;;;;;;14.55;9.68;;;;;;;14.16;95.31;100705.78;4906504;29;20070;-71
2023/07/23 05:19:45;;;;;;;9.77;7.22;;;;;;;14.13;94.40;100699.06;4908945;29;20111;-70
2023/07/23 05:22:11;;;;;;;;;;;;;;;14.15;94.71;100706.84;4913885;29;20512;-72
2023/07/23 05:24:36;;;;;;;12.60;8.73;;;;;;;14.14;95.13;100706.06;4921099;29;19927;-73
2023/07/23 05:27:03;;;;;;;11.15;8.30;;;;;;;14.13;94.61;100706.38;4905054;29;20048;-71
2023/07/23 05:29:28;;;;;;;12.23;8.07;;;;;;;14.14;94.75;100710.66;4915376;29;20215;-70
2023/07/23 05:31:54;;;;;;;12.73;8.23;;;;;;;14.15;95.13;100706.84;4907739;29;20118;-71
2023/07/23 05:34:20;;;;;;;14.70;9.00;;;;;;;14.15;95.38;100702.28;4892370;29;20059;-70
2023/07/23 05:36:45;;;;;;;13.07;8.23;;;;;;;14.14;95.25;100705.25;4907505;29;20054;-72
2023/07/23 05:39:11;;;;;;;16.13;7.95;;;;;;;14.14;95.07;100699.88;4906176;29;20033;-71
2023/07/23 05:41:37;;;;;;;13.02;7.65;;;;;;;14.15;95.52;100706.84;4890603;29;20160;-71
2023/07/23 05:44:03;;;;;;;12.70;8.00;;;;;;;14.14;95.28;100702.56;4892835;29;20061;-70
2023/07/23 05:46:28;;;;;;;;;;;;;;;14.14;95.41;100705.25;4908180;29;20090;-70
2023/07/23 05:48:54;;;;;;;11.93;6.47;;;;;;;14.10;95.23;100698.88;4908486;29;19919;-70
2023/07/23 05:51:20;;;;;;;11.10;7.28;;;;;;;14.12;95.46;100694.00;4906170;29;20516;-70
2023/07/23 05:53:45;;;;;;;12.00;6.90;;;;;;;14.16;95.57;100692.31;4911895;29;20050;-70
2023/07/23 05:56:11;;;;;;;;;;;;;;;14.17;95.65;100691.22;4903076;29;20122;-70
2023/07/23 05:58:37;;;;;;;9.88;6.60;;;;;;;14.18;95.26;100692.81;4924200;29;19926;-70
2023/07/23 06:01:03;;;;;;;11.70;6.85;;;;;;;14.22;96.00;100691.13;4892329;29;20224;-71
2023/07/23 06:03:29;;;;;;;11.80;6.97;;;;;;;14.23;95.96;100687.34;4911094;29;20493;-70
2023/07/23 06:05:55;;;;;;;10.82;7.28;;;;;;;14.23;95.44;100676.59;4904179;29;20139;-71
2023/07/23 06:08:20;;;;;;;11.95;7.18;;;;;;;14.27;95.79;100685.66;4902955;29;20046;-70
2023/07/23 06:10:46;;;;;;;12.20;6.72;;;;;;;14.29;95.62;100690.75;4909018;29;20115;-70
2023/07/23 06:13:11;;;;;;;10.32;6.97;;;;;;;14.32;95.45;100688.28;4906851;29;20036;-72
2023/07/23 06:15:37;;;;;;;11.82;7.25;;;;;;;14.34;95.00;100687.97;4906106;29;20039;-70
2023/07/23 06:18:02;;;;;;;13.75;6.63;;;;;;;14.35;95.56;100689.56;4895491;29;20032;-70
2023/07/23 06:20:28;;;;;;;9.05;6.32;;;;;;;14.39;95.79;100690.56;4908147;29;20040;-70
2023/07/23 06:22:54;;;;;;;9.45;6.43;;;;;;;14.41;95.71;100680.28;4907149;29;20486;-70
2023/07/23 06:25:20;;;;;;;10.98;6.90;;;;;;;14.44;95.53;100683.22;4901653;29;20047;-71
2023/07/23 06:27:46;;;;;;;10.73;6.07;;;;;;;14.47;95.62;100684.53;4890690;29;20048;-70
2023/07/23 06:30:12;;;;;;;12.80;7.90;;;;;;;14.49;95.58;100685.03;4904425;29;20032;-70
2023/07/23 06:32:38;;;;;;;12.32;6.03;;;;;;;14.49;95.46;100674.25;4877270;29;20142;-73
2023/07/23 06:35:05;;;;;;;11.00;7.28;;;;;;;14.52;95.33;100678.25;4905802;29;20032;-70
2023/07/23 06:37:31;;;;;;;11.30;6.82;;;;;;;14.55;95.63;100673.06;4889108;29;20043;-71
2023/07/23 06:39:56;;;;;;;;;;;;;;;14.57;95.14;100662.00;4890452;29;20048;-72
2023/07/23 06:42:22;;;;;;;13.98;6.72;;;;;;;14.55;95.19;100661.50;4920950;29;19919;-71
2023/07/23 06:44:48;;;;;;;10.90;6.70;;;;;;;14.60;95.39;100666.78;4906704;29;20046;-70
2023/07/23 06:47:13;;;;;;;10.23;7.88;;;;;;;14.61;94.96;100657.59;4907882;29;20044;-71
2023/07/23 06:49:39;;;;;;;9.65;6.43;;;;;;;14.65;94.94;100661.31;4903956;29;20044;-72
2023/07/23 06:52:05;;;;;;;10.70;7.32;;;;;;;14.68;94.80;100669.59;4905732;29;20044;-71
2023/07/23 06:54:32;;;;;;;8.65;6.22;;;;;;;14.68;94.35;100666.09;4905357;29;20520;-70
2023/07/23 06:56:58;;;;;;;11.65;6.90;;;;;;;14.68;94.66;100660.69;4889092;29;20055;-71
2023/07/23 06:59:24;;;;;;;12.75;7.82;;;;;;;14.71;94.78;100649.34;4904561;29;20028;-72
2023/07/23 07:01:50;;;;;;;12.63;8.05;;;;;;;14.78;95.07;100647.03;4904354;29;20032;-71
2023/07/23 07:04:15;;;;;;;13.40;7.78;;;;;;;14.71;94.09;100636.66;4901671;29;20035;-73
2023/07/23 07:06:42;;;;;;;11.10;7.20;;;;;;;14.74;94.97;100643.34;4903864;29;20040;-71
2023/07/23 07:09:08;;;;;;;10.10;7.05;;;;;;;14.75;94.40;100639.53;4901897;29;20099;-71
2023/07/23 07:11:34;;;;;;;11.63;7.22;;;;;;;14.82;94.12;100639.94;4904828;29;20454;-70
2023/07/23 07:13:59;;;;;;;11.65;7.20;;;;;;;14.83;94.62;100629.94;4908005;29;20032;-71
2023/07/23 07:16:25;;;;;;;11.23;7.80;;;;;;;14.83;94.56;100636.13;4899959;29;20047;-71
2023/07/23 07:18:53;;;;;;;11.05;7.00;;;;;;;14.83;94.21;100638.81;4905185;29;20032;-70
2023/07/23 07:21:18;;;;;;;11.18;7.60;;;;;;;14.85;94.56;100628.56;4906253;29;20066;-70
2023/07/23 07:23:44;;;;;;;;;;;;;;;14.88;94.51;100622.56;4891402;29;20068;-71
2023/07/23 07:26:09;;;;;;;9.77;6.35;;;;;;;14.90;94.30;100620.38;4905075;29;19918;-71
2023/07/23 07:28:35;;;;;;;;;;;;;;;14.92;94.43;100626.25;4897760;29;20043;-71
2023/07/23 07:31:01;;;;;;;8.90;6.57;;;;;;;14.89;94.01;100626.84;4892696;29;19966;-71
2023/07/23 07:33:28;;;;;;;10.48;7.22;;;;;;;14.90;93.67;100619.56;4904451;29;20040;-71
2023/07/23 07:35:54;;;;;;;11.88;8.25;;;;;;;14.95;94.38;100614.88;4902850;29;20040;-71
2023/07/23 07:38:20;;;;;;;12.13;7.90;;;;;;;14.97;94.37;100620.78;4904380;29;20048;-70
2023/07/23 07:40:47;;;;;;;;;;;;;;;15.00;94.34;100614.75;4903770;29;20040;-70
2023/07/23 07:43:13;;;;;;;13.25;7.03;;;;;;;15.05;94.54;100623.84;4888373;29;20420;-71
2023/07/23 07:45:38;;;;;;;;;;;;;;;15.13;94.64;100606.97;4903521;29;20032;-72
2023/07/23 07:48:04;;;;;;;10.48;7.30;;;;;;;15.16;94.44;100611.72;4905529;29;20468;-71
2023/07/23 07:50:30;;;;;;;;;;;;;;;15.17;93.99;100603.34;4904536;29;20043;-71
2023/07/23 07:52:56;;;;;;;10.30;7.25;;;;;;;15.25;94.66;100604.53;4904050;29;20014;-71
2023/07/23 07:55:22;;;;;;;;;;;;;;;15.26;94.36;100600.72;4903626;29;20168;-71
2023/07/23 07:57:48;;;;;;;10.90;7.07;;;;;;;15.29;94.59;100606.31;4903927;29;20289;-71
2023/07/23 08:00:14;;;;;;;12.63;8.10;;;;;;;15.31;94.34;100600.63;4906458;29;20059;-70
2023/07/23 08:02:41;;;;;;;12.98;7.70;;;;;;;15.33;94.03;100601.09;4910200;29;20039;-74
2023/07/23 08:05:07;;;;;;;;;;;;;;;15.38;94.65;100592.91;4907622;29;20040;-73
2023/07/23 08:07:34;;;;;;;10.63;7.65;;;;;;;15.42;94.41;100599.28;4903333;29;19923;-73
2023/07/23 08:10:01;;;;;;;13.43;8.35;;;;;;;15.46;94.42;100599.47;4874271;29;20143;-72
2023/07/23 08:12:28;;;;;;;12.43;8.57;;;;;;;15.46;94.38;100586.78;4901938;29;20032;-75
2023/07/23 08:14:56;;;;;;;11.20;7.35;;;;;;;15.43;93.99;100589.28;4904940;29;20036;-73
2023/07/23 08:17:22;;;;;;;12.73;7.88;;;;;;;15.43;94.12;100579.28;4900832;29;20134;-73
2023/07/23 08:19:48;;;;;;;;;;;;;;;15.49;94.77;100575.34;4904513;29;20119;-73
2023/07/23 08:22:14;;;;;;;10.25;7.53;;;;;;;15.51;93.87;100581.25;4905037;29;19929;-73
2023/07/23 08:24:39;;;;;;;;;;;;;;;15.61;94.38;100579.41;4904738;29;20139;-73
2023/07/23 08:27:07;;;;;;;9.88;7.80;;;;;;;15.68;94.98;100580.59;4905353;29;19918;-73
2023/07/23 08:29:34;;;;;;;11.30;8.27;;;;;;;15.68;94.07;100580.59;4906928;29;20039;-72
2023/07/23 08:32:01;;;;;;;10.63;7.43;;;;;;;15.73;93.75;100571.59;4878528;29;20067;-74
2023/07/23 08:34:28;;;;;;;12.10;7.55;;;;;;;15.78;94.17;100568.75;4907395;29;20046;-73
2023/07/23 08:36:54;;;;;;;;;;;;;;;15.82;94.57;100573.22;4910959;29;20119;-72
2023/07/23 08:39:21;;;;;;;12.32;7.63;;;;;;;15.80;93.57;100571.94;4909598;29;19947;-74
2023/07/23 08:42:03;;;;;;;10.60;7.28;;;;;;;15.83;94.23;100565.91;4908191;29;20624;-72
2023/07/23 08:45:03;;;;;;;9.80;7.18;;;;;;;15.83;93.59;100560.53;4909464;29;20414;-72
2023/07/23 08:47:34;;;;;;;12.82;8.32;;;;;;;15.88;94.22;100568.50;4909777;29;20131;-72
2023/07/23 08:50:00;;;;;;;11.32;7.53;;;;;;;15.92;93.81;100558.69;4907947;29;20139;-72
2023/07/23 08:52:28;;;;;;;16.25;8.45;;;;;;;15.93;93.60;100560.28;4906916;29;20036;-72
2023/07/23 08:54:55;;;;;;;12.65;7.55;;;;;;;15.97;93.79;100550.44;4907080;29;20028;-72
2023/07/23 08:57:21;;;;;;;12.02;8.00;;;;;;;16.02;93.75;100552.22;4905150;29;20040;-74
2023/07/23 08:59:47;;;;;;;;;;;;;;;15.99;91.96;100547.44;4876566;29;20123;-73
2023/07/23 09:02:13;;;;;;;8.73;6.25;;;;;;;16.05;92.43;100547.00;4911229;29;19945;-72
2023/07/23 09:04:38;;;;;;;;;;;;;;;16.13;93.12;100552.75;4910255;29;20032;-72
2023/07/23 09:07:10;;;;;;;12.23;7.22;;;;;;;16.14;92.87;100548.94;4907530;29;19919;-73
2023/07/23 09:09:35;;;;;;;11.82;7.07;;;;;;;16.16;92.32;100544.00;4908453;29;20083;-73
2023/07/23 09:12:03;;;;;;;;;;;;;;;16.19;92.84;100552.31;4891533;29;20729;-72
2023/07/23 09:14:29;;;;;;;10.75;8.18;;;;;;;16.17;92.49;100559.09;4922097;29;19946;-74
2023/07/23 09:16:55;;;;;;;;;;;;;;;16.19;92.77;100556.88;4906572;29;20040;-73
2023/07/23 09:19:26;;;;;;;11.43;6.80;;;;;;;16.21;92.73;100552.00;4909155;29;20006;-72
2023/07/23 09:21:57;;;;;;;11.07;7.18;;;;;;;16.21;92.58;100554.69;4902831;29;20414;-73
2023/07/23 09:24:31;;;;;;;12.45;8.90;;;;;;;16.24;92.98;100544.03;4879799;29;20040;-72
2023/07/23 09:26:56;;;;;;;11.43;8.60;;;;;;;16.25;93.23;100542.13;4908028;29;20076;-72
2023/07/23 09:29:22;;;;;;;;;;;;;;;16.25;91.99;100539.44;4907296;29;20760;-73
2023/07/23 09:31:49;;;;;;;14.63;8.85;;;;;;;16.30;92.94;100545.50;4904127;29;20463;-73
2023/07/23 09:34:19;;;;;;;8.88;7.60;;;;;;;16.32;92.45;100547.88;4908856;29;20042;-73
2023/07/23 09:36:45;;;;;;;12.73;7.68;;;;;;;16.32;91.97;100547.88;4898161;29;20099;-73
2023/07/23 09:39:10;;;;;;;;;;;;;;;16.36;92.49;100548.84;4908178;29;20391;-73
2023/07/23 09:41:38;;;;;;;13.02;9.52;;;;;;;16.37;92.48;100539.63;4908826;29;19970;-73
2023/07/23 09:44:09;;;;;;;13.88;8.50;;;;;;;16.43;93.07;100543.78;4891811;29;20157;-74
2023/07/23 09:46:43;;;;;;;11.45;8.95;;;;;;;16.41;92.44;100551.44;4901943;29;20040;-75
2023/07/23 09:49:09;;;;;;;12.23;8.15;;;;;;;16.43;91.69;100535.69;4905201;29;20036;-74
2023/07/23 09:51:36;;;;;;;;;;;;;;;16.44;91.85;100553.50;4904813;29;20050;-72
2023/07/23 09:54:03;;;;;;;10.98;7.35;;;;;;;16.46;91.51;100537.78;4924175;29;19926;-74
2023/07/23 09:56:32;;;;;;;11.13;8.55;;;;;;;16.54;92.34;100542.41;4907732;29;20059;-73
2023/07/23 09:58:59;;;;;;;10.75;8.60;;;;;;;16.57;92.84;100549.88;4905791;29;20531;-74
2023/07/23 10:01:25;;;;;;;11.52;8.95;;;;;;;16.61;92.92;100556.25;4905413;29;20143;-73
2023/07/23 10:03:53;;;;;;;13.00;9.15;;;;;;;16.69;93.22;100557.38;4892126;29;20123;-73
2023/07/23 10:06:23;;;;;;;12.10;8.32;;;;;;;16.73;92.42;100544.03;4907495;29;20092;-73
2023/07/23 10:08:50;;;;;;;12.80;9.48;;;;;;;16.81;93.20;100546.78;4907880;29;20036;-73
2023/07/23 10:11:17;;;;;;;12.35;8.38;;;;;;;16.90;92.81;100544.09;4905555;29;20036;-73
2023/07/23 10:13:47;;;;;;;10.68;7.80;;;;;;;16.93;92.30;100538.03;4892034;29;20036;-73
2023/07/23 10:16:27;;;;;;;11.80;8.63;;;;;;;16.95;91.71;100541.25;4926625;29;20713;-73
2023/07/23 10:18:55;;;;;;;12.20;8.07;;;;;;;17.03;91.89;100531.53;4908086;29;20028;-73
2023/07/23 10:21:23;;;;;;;13.13;8.45;;;;;;;17.08;91.38;100534.88;4895582;29;20506;-74
2023/07/23 10:23:57;;;;;;;11.40;7.82;;;;;;;17.14;91.18;100533.63;4910853;29;20032;-72
2023/07/23 10:26:23;;;;;;;12.20;8.23;;;;;;;17.25;91.24;100533.28;4900597;29;20040;-73
2023/07/23 10:28:55;;;;;;;10.20;7.97;;;;;;;17.34;91.69;100531.34;4896595;29;20035;-73
2023/07/23 10:31:26;;;;;;;12.85;8.15;;;;;;;17.41;91.42;100531.69;4907343;29;20417;-72
2023/07/23 10:33:52;;;;;;;11.20;7.88;;;;;;;17.46;91.89;100531.50;4889181;29;20040;-73
2023/07/23 10:36:21;;;;;;;10.30;7.78;;;;;;;17.53;91.75;100523.69;4907530;29;20032;-72
2023/07/23 10:39:20;;;;;;;13.77;8.88;;;;;;;17.56;91.31;100533.91;4907487;29;20044;-74
2023/07/23 10:41:53;;;;;;;10.25;7.55;;;;;;;17.53;89.23;100529.09;4901311;29;20118;-72
2023/07/23 10:44:28;;;;;;;12.70;7.78;;;;;;;17.58;89.19;100530.84;4891770;29;20028;-74
2023/07/23 10:46:59;;;;;;;13.13;7.00;;;;;;;17.61;89.60;100519.38;4905126;29;20095;-73
2023/07/23 10:49:30;;;;;;;11.05;7.65;;;;;;;17.61;88.36;100522.91;4904895;29;20047;-71
2023/07/23 10:52:12;;;;;;;11.93;8.02;;;;;;;17.69;90.03;100526.69;4891124;29;20055;-73
2023/07/23 10:54:38;;;;;;;11.77;8.70;;;;;;;17.77;90.41;100527.81;4906327;29;20028;-74
2023/07/23 10:57:05;;;;;;;12.60;8.07;;;;;;;17.79;89.71;100523.66;4906719;29;20047;-72
2023/07/23 10:59:30;;;;;;;13.73;9.10;;;;;;;17.86;90.26;100523.16;4892381;29;20042;-72
2023/07/23 11:01:56;;;;;;;11.98;8.10;;;;;;;17.90;89.11;100516.00;4904018;29;20035;-73
2023/07/23 11:04:25;;;;;;;;;;;;;;;17.92;88.89;100521.88;4906999;29;20040;-73
2023/07/23 11:07:02;;;;;;;11.07;7.57;;;;;;;18.02;90.05;100518.81;4891567;29;19923;-73
2023/07/23 11:09:32;;;;;;;10.90;7.63;;;;;;;18.07;90.44;100509.69;4907910;29;20411;-73
2023/07/23 11:11:59;;;;;;;11.90;7.43;;;;;;;18.03;89.11;100508.78;4900353;29;20052;-72
2023/07/23 11:14:27;;;;;;;10.68;7.75;;;;;;;18.01;90.08;100507.16;4908104;29;20079;-73
2023/07/23 11:16:55;;;;;;;15.18;9.27;;;;;;;17.97;91.53;100511.66;4906297;29;20036;-73
2023/07/23 11:19:24;;;;;;;9.18;7.28;;;;;;;17.91;91.70;100515.66;4905832;29;20529;-72
2023/07/23 11:21:56;;;;;;;10.45;7.53;;;;;;;17.82;90.87;100514.13;4900323;29;20091;-71
2023/07/23 11:24:24;;;;;;;13.38;9.07;;;;;;;17.79;91.63;100531.00;4897432;29;20044;-70
2023/07/23 11:26:50;;;;;;;10.80;7.28;;;;;;;17.65;89.95;100523.84;4889445;29;20553;-70
2023/07/23 11:29:16;;;;;;;10.23;7.07;;;;;;;17.61;90.06;100528.31;4904279;29;20119;-70